Time;durP1;ratioP1;P1;durP2;ratioP2;P2;SDS_P1;SDS_P2;PMS_P1;PMS_P2;Temp;Humidity;BMP_temperature;BMP_pressure;BME280_temperature;BME280_humidity;BME280_pressure;Samples;Min_cycle;Max_cycle;Signal;HPM_P1;HPM_P2
2021/05/03 00:01:59;;;;;;;18.62;6.45;;;;;;;17.50;100.00;98006.48;1747402;82;21363;-66
2021/05/03 00:04:31;;;;;;;7.55;4.90;;;;;;;17.49;100.00;98007.39;1746914;82;21497;-67
2021/05/03 00:07:04;;;;;;;8.13;4.17;;;;;;;17.46;100.00;98018.22;1749046;81;21479;-67
2021/05/03 00:09:38;;;;;;;6.97;3.55;;;;;;;17.45;100.00;98022.30;1747895;82;21049;-67
2021/05/03 00:12:12;;;;;;;10.18;2.80;;;;;;;17.43;100.00;98027.70;1748714;82;20938;-67
2021/05/03 00:14:46;;;;;;;10.20;2.87;;;;;;;17.44;100.00;98027.23;1739496;81;21061;-66
2021/05/03 00:17:19;;;;;;;7.95;2.90;;;;;;;17.41;100.00;98034.92;1725637;81;21014;-67
2021/05/03 00:19:52;;;;;;;9.15;3.02;;;;;;;17.38;100.00;98040.88;1726555;81;20942;-67
2021/05/03 00:22:28;;;;;;;6.30;2.72;;;;;;;17.35;100.00;98033.91;1726572;81;21053;-66
2021/05/03 00:25:01;;;;;;;7.72;2.52;;;;;;;17.34;100.00;98040.64;1726779;81;21081;-66
2021/05/03 00:27:34;;;;;;;7.45;2.60;;;;;;;17.29;100.00;98049.73;1726497;81;21158;-66
2021/05/03 00:30:09;;;;;;;5.00;2.50;;;;;;;17.25;100.00;98048.17;1725948;81;20969;-67
2021/05/03 00:32:42;;;;;;;3.35;2.33;;;;;;;17.10;100.00;98061.40;1697312;83;20970;-67
2021/05/03 00:35:21;;;;;;;4.62;2.85;;;;;;;17.10;100.00;98061.40;1721965;81;21052;-67
2021/05/03 00:37:54;;;;;;;4.10;2.70;;;;;;;17.06;100.00;98078.48;1726142;81;21097;-67
2021/05/03 00:40:32;;;;;;;5.47;3.17;;;;;;;16.98;100.00;98090.34;1726059;81;21220;-67
2021/05/03 00:43:05;;;;;;;5.55;2.67;;;;;;;16.91;100.00;98091.58;1726091;81;21504;-67
2021/05/03 00:45:38;;;;;;;5.65;3.05;;;;;;;16.82;100.00;98083.17;1726413;81;20958;-68
2021/05/03 00:48:14;;;;;;;3.90;2.60;;;;;;;16.74;100.00;98094.19;1726825;81;20947;-67
2021/05/03 00:50:45;;;;;;;3.77;2.40;;;;;;;16.68;100.00;98105.14;1724073;81;21627;-68
2021/05/03 00:53:21;;;;;;;4.00;2.50;;;;;;;16.60;100.00;98110.79;1726379;81;21203;-67
2021/05/03 00:55:58;;;;;;;2.52;2.00;;;;;;;16.49;100.00;98109.06;1725538;81;21044;-68
2021/05/03 00:58:44;;;;;;;3.65;2.10;;;;;;;16.39;100.00;98107.77;1710653;83;21089;-69
2021/05/03 01:01:18;;;;;;;4.40;2.17;;;;;;;16.28;100.00;98104.73;1725622;81;20930;-67
2021/05/03 01:03:53;;;;;;;3.60;2.20;;;;;;;16.17;100.00;98106.55;1726308;81;21184;-67
2021/05/03 01:06:29;;;;;;;2.83;2.27;;;;;;;16.07;100.00;98101.22;1726330;83;21396;-68
2021/05/03 01:09:04;;;;;;;3.05;2.25;;;;;;;15.93;100.00;98107.62;1726225;81;21108;-68
2021/05/03 01:11:38;;;;;;;3.22;2.33;;;;;;;15.80;100.00;98109.09;1726048;81;20970;-67
2021/05/03 01:14:11;;;;;;;4.78;2.52;;;;;;;15.72;100.00;98104.11;1726213;81;20944;-66
2021/05/03 01:16:46;;;;;;;3.30;2.55;;;;;;;15.66;100.00;98110.55;1726590;81;20931;-67
2021/05/03 01:19:21;;;;;;;3.42;2.65;;;;;;;15.59;100.00;98109.05;1726510;81;21428;-67
2021/05/03 01:21:54;;;;;;;4.67;2.72;;;;;;;15.53;100.00;98111.95;1725989;82;21164;-67
2021/05/03 01:24:39;;;;;;;2.87;2.57;;;;;;;15.49;100.00;98114.80;1726558;81;21180;-67
2021/05/03 01:27:22;;;;;;;2.85;2.58;;;;;;;15.47;100.00;98112.20;1713817;82;22212;-68
2021/05/03 01:29:58;;;;;;;5.28;2.80;;;;;;;15.40;100.00;98110.27;1725604;81;20994;-67
2021/05/03 01:32:31;;;;;;;3.52;2.65;;;;;;;15.36;100.00;98102.49;1726081;83;21380;-67
2021/05/03 01:35:05;;;;;;;4.40;2.60;;;;;;;15.29;100.00;98106.34;1726057;81;21045;-66
2021/05/03 01:37:36;;;;;;;7.10;3.75;;;;;;;15.27;100.00;98116.16;1725800;81;20998;-67
2021/05/03 01:40:11;;;;;;;3.92;3.02;;;;;;;15.26;100.00;98113.97;1726234;81;21094;-68
2021/05/03 01:42:45;;;;;;;3.83;3.20;;;;;;;15.24;100.00;98114.50;1726087;82;20931;-68
2021/05/03 01:45:28;;;;;;;3.92;2.75;;;;;;;15.25;100.00;98116.69;1726325;81;21293;-68
2021/05/03 01:48:18;;;;;;;3.30;2.90;;;;;;;15.30;100.00;98109.39;1750381;78;22745;-68
2021/05/03 01:50:52;;;;;;;5.25;3.15;;;;;;;15.25;100.00;98110.91;1664276;84;21072;-69
2021/05/03 01:53:24;;;;;;;4.05;2.98;;;;;;;15.25;100.00;98104.73;1695857;82;21386;-68
2021/05/03 01:56:01;;;;;;;4.33;3.12;;;;;;;15.25;100.00;98105.59;1676675;84;20958;-69
2021/05/03 01:58:37;;;;;;;4.87;3.05;;;;;;;15.21;100.00;98107.98;1685737;84;21002;-69
2021/05/03 02:01:10;;;;;;;3.72;3.12;;;;;;;15.19;100.00;98107.19;1694982;84;21533;-69
2021/05/03 02:03:47;;;;;;;4.10;3.15;;;;;;;15.18;100.00;98117.41;1683565;84;20910;-71
2021/05/03 02:06:22;;;;;;;4.22;3.15;;;;;;;15.20;100.00;98122.19;1677383;84;20979;-70
2021/05/03 02:08:56;;;;;;;2.85;2.58;;;;;;;15.18;100.00;98120.53;1687774;82;20972;-68
2021/05/03 02:11:30;;;;;;;3.52;2.77;;;;;;;15.18;100.00;98129.36;1692298;83;21065;-68
2021/05/03 02:14:03;;;;;;;5.15;3.05;;;;;;;15.19;100.00;98125.78;1682011;84;21195;-66
2021/05/03 02:16:35;;;;;;;3.30;3.00;;;;;;;15.18;100.00;98134.67;1688198;84;21575;-66
2021/05/03 02:19:06;;;;;;;5.62;3.20;;;;;;;15.14;100.00;98133.07;1695339;84;21221;-66
2021/05/03 02:21:38;;;;;;;;;;;;;;;15.11;100.00;98133.16;1694626;84;21054;-67
2021/05/03 02:24:10;;;;;;;4.17;2.55;;;;;;;15.08;100.00;98143.45;1678042;82;20168;-67
2021/05/03 02:26:44;;;;;;;3.42;3.02;;;;;;;15.06;100.00;98151.08;1676568;84;21552;-67
2021/05/03 02:29:16;;;;;;;4.78;2.67;;;;;;;15.07;100.00;98151.48;1682507;84;20959;-68
2021/05/03 02:31:47;;;;;;;4.20;3.00;;;;;;;15.08;100.00;98138.59;1676893;84;21395;-64
2021/05/03 02:34:29;;;;;;;3.62;2.37;;;;;;;15.11;100.00;98144.65;1677775;83;21227;-65
2021/05/03 02:37:02;;;;;;;6.10;2.77;;;;;;;15.14;100.00;98146.35;1676009;84;21051;-66
2021/05/03 02:39:33;;;;;;;3.50;3.10;;;;;;;15.16;100.00;98143.63;1674499;84;21009;-66
2021/05/03 02:42:07;;;;;;;5.83;2.90;;;;;;;15.15;100.00;98135.27;1681161;84;21028;-66
2021/05/03 02:44:39;;;;;;;3.37;2.47;;;;;;;15.12;100.00;98134.89;1652733;84;21211;-66
2021/05/03 02:47:12;;;;;;;5.15;2.85;;;;;;;15.05;100.00;98136.93;1691725;83;21049;-67
2021/05/03 02:49:43;;;;;;;;;;;;;;;14.97;100.00;98150.98;1684119;85;21613;-66
2021/05/03 02:52:16;;;;;;;3.10;2.47;;;;;;;14.89;100.00;98163.70;1656032;85;20260;-67
2021/05/03 02:54:47;;;;;;;2.50;2.20;;;;;;;14.86;100.00;98177.55;1661629;85;21050;-67
2021/05/03 02:57:18;;;;;;;3.75;2.30;;;;;;;14.83;100.00;98194.93;1707446;82;21488;-67
2021/05/03 02:59:49;;;;;;;5.03;2.80;;;;;;;14.83;100.00;98203.77;1706703;82;20958;-66
2021/05/03 03:02:19;;;;;;;4.45;2.60;;;;;;;14.83;100.00;98197.13;1708529;82;20943;-66
2021/05/03 03:04:52;;;;;;;3.55;2.40;;;;;;;14.85;100.00;98202.37;1660671;85;20958;-68
2021/05/03 03:07:23;;;;;;;3.33;2.52;;;;;;;14.84;100.00;98194.87;1707054;82;21485;-67
2021/05/03 03:09:53;;;;;;;6.62;2.55;;;;;;;14.83;100.00;98200.23;1707649;82;21311;-68
2021/05/03 03:12:26;;;;;;;3.27;2.33;;;;;;;14.82;100.00;98188.75;1733648;82;20931;-67
2021/05/03 03:14:56;;;;;;;3.37;2.70;;;;;;;14.82;100.00;98191.41;1733524;81;21490;-67
2021/05/03 03:17:27;;;;;;;5.25;2.62;;;;;;;14.78;100.00;98190.66;1735966;82;21073;-67
2021/05/03 03:19:58;;;;;;;4.95;2.55;;;;;;;14.75;100.00;98202.72;1735915;82;20940;-67
2021/05/03 03:22:28;;;;;;;4.37;2.80;;;;;;;14.77;100.00;98210.63;1708714;82;21379;-67
2021/05/03 03:24:59;;;;;;;4.58;3.10;;;;;;;14.74;100.00;98206.77;1708662;82;21494;-68
2021/05/03 03:27:29;;;;;;;7.33;2.95;;;;;;;14.73;100.00;98208.55;1706657;82;21070;-68
2021/05/03 03:30:01;;;;;;;2.65;2.45;;;;;;;14.68;100.00;98207.86;1706406;84;21300;-66
2021/05/03 03:32:32;;;;;;;6.12;3.02;;;;;;;14.67;100.00;98222.06;1660168;85;21615;-67
2021/05/03 03:35:04;;;;;;;2.80;2.60;;;;;;;14.67;100.00;98222.52;1708501;81;21212;-68
2021/05/03 03:37:34;;;;;;;3.23;2.77;;;;;;;14.66;100.00;98217.67;1732687;82;21560;-67
2021/05/03 03:40:06;;;;;;;3.65;2.67;;;;;;;14.63;100.00;98217.75;1735945;82;21019;-67
2021/05/03 03:42:37;;;;;;;3.58;2.80;;;;;;;14.57;100.00;98217.98;1706829;82;21489;-68
2021/05/03 03:45:09;;;;;;;3.45;2.65;;;;;;;14.56;100.00;98228.66;1660555;85;20965;-68
2021/05/03 03:47:39;;;;;;;3.50;2.70;;;;;;;14.52;100.00;98227.91;1740749;81;21458;-67
2021/05/03 03:50:12;;;;;;;3.87;2.80;;;;;;;14.46;100.00;98246.70;1749896;80;20962;-67
2021/05/03 03:52:45;;;;;;;4.50;2.80;;;;;;;14.40;100.00;98250.88;1750089;80;20978;-67
2021/05/03 03:55:15;;;;;;;4.28;2.70;;;;;;;14.34;100.00;98251.09;1749949;80;21066;-69
2021/05/03 03:57:46;;;;;;;3.27;2.70;;;;;;;14.30;100.00;98265.38;1747904;80;21666;-69
2021/05/03 04:00:18;;;;;;;3.22;2.95;;;;;;;14.26;100.00;98283.19;1749606;82;21198;-69
2021/05/03 04:02:50;;;;;;;4.27;3.00;;;;;;;14.20;100.00;98283.41;1742628;80;21014;-69
2021/05/03 04:08:17;;;;;;;3.00;2.60;;;;;;;14.13;100.00;98288.48;1722339;82;20994;-69
2021/05/03 04:27:08;;;;;;;2.45;2.25;;;;;;;13.81;100.00;98306.80;1770892;79;20914;-67
2021/05/03 04:29:39;;;;;;;3.87;2.47;;;;;;;13.80;100.00;98308.58;1717947;82;21013;-68
2021/05/03 04:32:09;;;;;;;3.15;2.60;;;;;;;13.83;100.00;98312.91;1724975;81;21496;-69
2021/05/03 04:34:39;;;;;;;3.47;2.77;;;;;;;13.86;100.00;98308.37;1715163;82;21049;-68
2021/05/03 04:37:10;;;;;;;4.20;2.80;;;;;;;13.89;100.00;98314.49;1711911;82;21564;-69
2021/05/03 04:39:41;;;;;;;4.42;2.60;;;;;;;13.92;100.00;98317.91;1725351;81;21017;-68
2021/05/03 04:42:11;;;;;;;5.37;2.98;;;;;;;13.99;100.00;98325.20;1715174;82;21010;-68
2021/05/03 04:44:43;;;;;;;3.98;2.95;;;;;;;13.99;100.00;98330.05;1725366;81;22291;-69
2021/05/03 04:47:13;;;;;;;3.83;2.77;;;;;;;14.00;100.00;98332.23;1717917;82;21152;-69
2021/05/03 04:49:44;;;;;;;4.55;2.83;;;;;;;14.02;100.00;98327.75;1715065;81;20962;-69
2021/05/03 04:52:14;;;;;;;4.55;2.30;;;;;;;14.03;100.00;98330.35;1715891;82;20930;-69
2021/05/03 04:54:45;;;;;;;4.35;2.33;;;;;;;14.04;100.00;98322.80;1710815;82;20954;-69
2021/05/03 04:57:15;;;;;;;2.67;2.20;;;;;;;14.06;100.00;98316.99;1764882;79;21397;-71
2021/05/03 04:59:45;;;;;;;5.35;2.35;;;;;;;14.11;100.00;98315.52;1772298;79;20910;-70
2021/05/03 05:02:16;;;;;;;2.27;2.00;;;;;;;14.13;100.00;98303.06;1772161;79;21033;-70
2021/05/03 05:04:46;;;;;;;2.98;2.10;;;;;;;14.12;100.00;98302.66;1772579;79;20875;-71
2021/05/03 05:07:18;;;;;;;7.65;2.15;;;;;;;14.14;100.00;98306.99;1755144;79;20914;-68
2021/05/03 05:09:48;;;;;;;3.62;1.87;;;;;;;14.19;100.00;98306.87;1772747;79;21466;-70
2021/05/03 05:12:19;;;;;;;2.98;2.17;;;;;;;14.09;100.00;98314.70;1767684;79;20942;-69
2021/05/03 05:14:49;;;;;;;2.95;2.05;;;;;;;14.01;100.00;98312.30;1761474;80;21588;-72
2021/05/03 05:17:20;;;;;;;5.10;2.12;;;;;;;13.95;100.00;98323.57;1759378;80;21029;-70
2021/05/03 05:19:50;;;;;;;2.67;1.98;;;;;;;13.86;100.00;98330.91;1761822;80;21005;-69
2021/05/03 05:22:20;;;;;;;4.10;2.47;;;;;;;13.79;100.00;98339.11;1761386;80;22115;-70
2021/05/03 05:24:50;;;;;;;4.05;2.08;;;;;;;13.77;100.00;98347.56;1760479;80;21049;-70
2021/05/03 05:27:21;;;;;;;3.72;1.92;;;;;;;13.72;100.00;98338.44;1749941;80;20993;-73
2021/05/03 05:29:50;;;;;;;3.17;1.92;;;;;;;13.66;100.00;98343.03;1758184;80;21144;-71
2021/05/03 05:32:21;;;;;;;3.98;1.92;;;;;;;13.62;100.00;98347.56;1760443;80;20982;-71
2021/05/03 05:34:52;;;;;;;3.37;2.05;;;;;;;13.68;100.00;98350.47;1761272;80;21529;-71
2021/05/03 05:37:23;;;;;;;3.08;2.08;;;;;;;13.75;100.00;98340.13;1743130;80;21140;-70
2021/05/03 05:39:53;;;;;;;7.30;4.83;;;;;;;13.84;100.00;98351.76;1731081;81;20986;-71
2021/05/03 05:42:23;;;;;;;5.53;3.95;;;;;;;14.01;100.00;98360.48;1710500;82;21029;-71
2021/05/03 05:44:53;;;;;;;5.85;3.00;;;;;;;14.17;100.00;98349.33;1710680;82;20990;-70
2021/05/03 05:47:23;;;;;;;3.83;2.00;;;;;;;14.32;100.00;98355.94;1793264;79;21426;-71
2021/05/03 05:49:54;;;;;;;2.05;1.60;;;;;;;14.40;100.00;98364.50;1798903;78;20975;-70
2021/05/03 05:52:24;;;;;;;5.03;2.02;;;;;;;14.45;100.00;98365.70;1797245;79;20975;-71
2021/05/03 05:54:54;;;;;;;2.35;2.15;;;;;;;14.47;100.00;98361.20;1767460;80;20979;-67
2021/05/03 05:57:25;;;;;;;6.17;2.98;;;;;;;14.47;100.00;98366.05;1766859;79;21125;-68
2021/05/03 05:59:55;;;;;;;3.05;2.70;;;;;;;14.47;100.00;98367.84;1768922;79;21360;-68
2021/05/03 06:02:25;;;;;;;6.00;2.05;;;;;;;14.51;100.00;98373.45;1767934;79;20923;-67
2021/05/03 06:04:56;;;;;;;4.17;2.35;;;;;;;14.59;100.00;98372.73;1789838;78;20987;-67
2021/05/03 06:07:27;;;;;;;3.35;2.17;;;;;;;14.69;100.00;98371.98;1798319;78;20923;-68
2021/05/03 06:09:59;;;;;;;3.08;2.10;;;;;;;14.81;100.00;98386.14;1797203;78;21493;-69
2021/05/03 06:12:31;;;;;;;3.85;2.42;;;;;;;14.89;100.00;98380.10;1805458;77;21188;-68
2021/05/03 06:15:02;;;;;;;5.28;2.17;;;;;;;14.97;100.00;98367.41;1816877;79;21026;-68
2021/05/03 06:17:33;;;;;;;3.75;1.98;;;;;;;15.00;100.00;98373.94;1786513;79;21021;-67
2021/05/03 06:20:05;;;;;;;2.40;1.80;;;;;;;14.99;100.00;98380.64;1787086;79;21583;-69
2021/05/03 06:22:37;;;;;;;4.97;1.90;;;;;;;14.97;100.00;98382.48;1816924;79;20879;-71
2021/05/03 06:25:10;;;;;;;;;;;;;;;14.91;100.00;98398.64;1819099;77;20942;-69
2021/05/03 06:27:40;;;;;;;2.50;1.80;;;;;;;14.84;100.00;98401.97;1816890;79;20121;-69
2021/05/03 06:30:12;;;;;;;3.92;2.40;;;;;;;14.82;100.00;98397.63;1814073;79;20926;-68
2021/05/03 06:32:42;;;;;;;3.17;2.30;;;;;;;14.88;100.00;98400.07;1801748;79;20927;-68
2021/05/03 06:35:12;;;;;;;3.55;2.40;;;;;;;14.91;100.00;98395.98;1784587;79;20922;-70
2021/05/03 06:37:42;;;;;;;3.10;2.10;;;;;;;14.95;100.00;98377.69;1798276;77;22378;-70
2021/05/03 06:40:12;;;;;;;2.30;1.80;;;;;;;15.01;100.00;98381.45;1785579;79;21038;-75
2021/05/03 06:42:42;;;;;;;1.87;1.67;;;;;;;15.06;100.00;98398.95;1726850;81;20947;-68
2021/05/03 06:45:12;;;;;;;3.05;1.60;;;;;;;15.04;100.00;98420.72;1816154;79;21488;-69
2021/05/03 06:47:44;;;;;;;3.02;1.90;;;;;;;15.00;100.00;98436.36;1816629;79;21018;-73
2021/05/03 06:50:13;;;;;;;3.58;2.52;;;;;;;14.93;100.00;98432.19;1816544;77;21632;-65
2021/05/03 06:52:47;;;;;;;4.40;2.50;;;;;;;14.86;100.00;98424.48;1811241;77;21049;-71
2021/05/03 06:55:16;;;;;;;4.25;2.52;;;;;;;14.80;100.00;98427.77;1784384;80;20934;-71
2021/05/03 06:57:46;;;;;;;3.75;1.65;;;;;;;14.75;100.00;98439.00;1725484;82;20869;-70
2021/05/03 07:00:16;;;;;;;6.12;2.27;;;;;;;14.72;100.00;98448.86;1793102;79;20913;-69
2021/05/03 07:02:46;;;;;;;2.65;1.40;;;;;;;14.69;100.00;98439.67;1796681;79;21346;-69
2021/05/03 07:05:20;;;;;;;2.52;1.62;;;;;;;14.66;100.00;98439.31;1808116;77;20915;-68
2021/05/03 07:07:52;;;;;;;2.33;1.80;;;;;;;14.63;100.00;98450.46;1784771;79;20970;-71
2021/05/03 07:10:23;;;;;;;2.62;1.67;;;;;;;14.58;100.00;98449.29;1786129;79;20982;-73
2021/05/03 07:12:54;;;;;;;1.87;1.50;;;;;;;14.57;100.00;98459.50;1792835;79;21519;-73
2021/05/03 07:15:24;;;;;;;2.85;1.50;;;;;;;14.58;100.00;98460.36;1779323;79;21362;-72
2021/05/03 07:17:54;;;;;;;4.08;1.72;;;;;;;14.55;100.00;98458.68;1816482;79;20934;-72
2021/05/03 07:20:24;;;;;;;3.42;2.20;;;;;;;14.52;100.00;98457.45;1813976;77;21180;-74
2021/05/03 07:22:55;;;;;;;2.72;2.10;;;;;;;14.47;100.00;98464.70;1784437;80;20922;-73
2021/05/03 07:25:25;;;;;;;2.40;1.75;;;;;;;14.46;100.00;98474.45;1784575;79;20922;-73
2021/05/03 07:27:55;;;;;;;3.37;1.98;;;;;;;14.47;100.00;98472.20;1784452;79;21195;-73
2021/05/03 07:30:25;;;;;;;2.02;1.80;;;;;;;14.51;100.00;98474.30;1784280;80;20930;-72
2021/05/03 07:32:55;;;;;;;3.62;1.50;;;;;;;14.51;100.00;98470.77;1783904;80;21045;-72
2021/05/03 07:35:26;;;;;;;1.92;1.75;;;;;;;14.49;100.00;98466.39;1784638;79;20910;-71
2021/05/03 07:37:56;;;;;;;3.08;2.15;;;;;;;14.46;100.00;98458.53;1784708;79;20922;-70
2021/05/03 07:40:27;;;;;;;3.00;2.47;;;;;;;14.47;100.00;98460.26;1784685;80;21159;-69
2021/05/03 07:42:58;;;;;;;3.05;2.42;;;;;;;14.56;100.00;98459.55;1784675;79;20941;-70
2021/05/03 07:45:29;;;;;;;2.70;1.95;;;;;;;14.67;100.00;98470.70;1794237;79;20947;-69
2021/05/03 07:47:59;;;;;;;1.82;1.70;;;;;;;14.76;100.00;98472.59;1784050;80;20910;-67
2021/05/03 07:50:29;;;;;;;5.80;2.00;;;;;;;14.85;100.00;98468.76;1784458;79;21033;-67
2021/05/03 07:53:00;;;;;;;2.00;1.60;;;;;;;14.91;100.00;98479.63;1784673;80;21404;-67
2021/05/03 07:55:34;;;;;;;1.52;1.40;;;;;;;14.99;100.00;98487.73;1784463;79;20997;-68
2021/05/03 07:58:04;;;;;;;4.03;1.82;;;;;;;15.04;100.00;98491.56;1784583;79;20982;-67
2021/05/03 08:00:36;;;;;;;2.85;1.52;;;;;;;15.12;100.00;98489.51;1786289;79;21132;-67
2021/05/03 08:03:07;;;;;;;2.12;1.70;;;;;;;15.17;100.00;98496.02;1743718;81;20871;-66
2021/05/03 08:05:37;;;;;;;3.17;1.60;;;;;;;15.18;100.00;98491.98;1800937;77;22370;-67
2021/05/03 08:08:08;;;;;;;10.98;2.05;;;;;;;15.18;100.00;98501.28;1784408;80;20998;-68
2021/05/03 08:10:39;;;;;;;1.98;1.57;;;;;;;15.13;100.00;98500.54;1788372;79;21013;-69
2021/05/03 08:13:09;;;;;;;3.85;1.90;;;;;;;15.12;100.00;98503.66;1780606;79;21280;-68
2021/05/03 08:15:45;;;;;;;2.25;1.50;;;;;;;15.18;100.00;98499.08;1773680;79;21152;-68
2021/05/03 08:18:13;;;;;;;3.95;1.80;;;;;;;15.21;99.68;98506.95;1781878;78;21394;-69
2021/05/03 08:20:44;;;;;;;1.57;1.20;;;;;;;15.27;100.00;98511.59;1789871;79;21085;-67
2021/05/03 08:23:19;;;;;;;5.12;1.45;;;;;;;15.28;99.63;98513.32;1789343;78;21184;-69
2021/05/03 08:25:51;;;;;;;3.92;1.17;;;;;;;15.27;99.45;98521.34;1788902;78;21160;-68
2021/05/03 08:28:22;;;;;;;4.92;1.55;;;;;;;15.26;99.54;98527.12;1799378;78;21137;-70
2021/05/03 08:30:52;;;;;;;5.62;1.40;;;;;;;15.32;98.41;98528.23;1789443;79;21350;-67
2021/05/03 08:33:23;;;;;;;2.40;1.32;;;;;;;15.33;96.40;98528.64;1788758;79;21134;-67
2021/05/03 08:35:56;;;;;;;3.25;1.45;;;;;;;15.33;95.47;98522.00;1802812;79;21050;-67
2021/05/03 08:38:25;;;;;;;3.70;1.45;;;;;;;15.29;93.64;98514.19;1726070;82;20978;-70
2021/05/03 08:40:58;;;;;;;11.53;2.35;;;;;;;15.20;91.86;98502.55;1773598;80;21100;-68
2021/05/03 08:43:29;;;;;;;4.80;3.37;;;;;;;15.16;92.11;98490.30;1782436;79;21386;-68
2021/05/03 08:46:00;;;;;;;2.35;1.90;;;;;;;15.09;93.20;98494.47;1773829;80;21061;-68
2021/05/03 08:48:42;;;;;;;4.05;2.15;;;;;;;15.14;94.97;98500.11;1734468;81;21014;-68
2021/05/03 08:51:31;;;;;;;7.17;1.50;;;;;;;15.23;94.97;98502.45;1773926;79;21110;-69
2021/05/03 08:56:38;;;;;;;36.35;2.15;;;;;;;15.33;90.81;98508.71;1804080;78;21560;-70
2021/05/03 08:59:09;;;;;;;11.22;2.62;;;;;;;15.38;90.08;98514.73;1805102;78;21037;-66
2021/05/03 09:01:41;;;;;;;4.92;2.47;;;;;;;15.44;89.74;98518.50;1805162;78;21022;-71
2021/05/03 09:04:12;;;;;;;5.33;3.47;;;;;;;15.50;90.06;98517.41;1804489;78;21152;-68
2021/05/03 09:07:07;;;;;;;6.70;3.55;;;;;;;15.59;89.18;98513.12;1772041;79;21296;-70
2021/05/03 09:09:49;;;;;;;4.25;3.15;;;;;;;15.65;89.79;98517.38;1780468;79;21607;-70
2021/05/03 09:12:24;;;;;;;4.42;2.00;;;;;;;15.74;90.46;98521.02;1773640;79;21188;-69
2021/05/03 09:15:02;;;;;;;4.58;2.17;;;;;;;15.83;91.58;98521.14;1773528;79;21476;-70
2021/05/03 09:17:42;;;;;;;2.85;1.30;;;;;;;15.96;92.59;98521.09;1773684;81;21041;-70
2021/05/03 09:20:19;;;;;;;1.90;0.93;;;;;;;16.19;96.48;98521.56;1773303;79;21092;-68
2021/05/03 09:23:00;;;;;;;5.90;1.52;;;;;;;16.43;92.90;98526.39;1774405;79;21335;-68
2021/05/03 09:25:35;;;;;;;6.62;1.35;;;;;;;16.66;91.27;98527.27;1775255;79;21473;-67
2021/05/03 09:28:12;;;;;;;9.75;1.20;;;;;;;16.94;92.88;98536.78;1733680;81;20939;-69
2021/05/03 09:30:50;;;;;;;1.50;1.10;;;;;;;17.17;87.33;98535.84;1778158;79;21029;-68
2021/05/03 09:33:30;;;;;;;9.90;1.00;;;;;;;17.36;84.44;98535.45;1790841;78;21202;-66
2021/05/03 09:36:09;;;;;;;1.20;0.98;;;;;;;17.53;81.13;98536.09;1790005;79;21163;-68
2021/05/03 09:38:50;;;;;;;1.37;1.00;;;;;;;17.61;77.98;98543.28;1784636;78;20930;-68
2021/05/03 09:41:27;;;;;;;1.40;0.98;;;;;;;17.71;77.38;98545.97;1790599;79;21117;-67
2021/05/03 09:44:08;;;;;;;0.80;0.80;;;;;;;17.83;75.72;98542.75;1787990;79;20923;-67
2021/05/03 09:46:55;;;;;;;2.25;0.80;;;;;;;17.98;75.50;98532.34;1614100;87;21328;-67
2021/05/03 09:49:22;;;;;;;0.95;0.90;;;;;;;18.08;71.72;98540.33;1613393;87;22374;-67
2021/05/03 09:51:58;;;;;;;2.17;1.00;;;;;;;18.18;71.63;98543.84;1568803;88;21757;-66
2021/05/03 09:54:31;;;;;;;1.85;0.90;;;;;;;18.28;71.84;98550.08;1613916;88;21122;-65
2021/05/03 09:57:13;;;;;;;2.33;0.90;;;;;;;18.36;71.05;98549.25;1610077;88;21107;-66
2021/05/03 09:59:49;;;;;;;4.40;1.05;;;;;;;18.49;72.53;98535.74;1612532;87;21119;-66
2021/05/03 10:02:30;;;;;;;1.27;0.80;;;;;;;18.64;71.81;98534.17;1613306;87;22382;-66
2021/05/03 10:05:10;;;;;;;1.82;1.40;;;;;;;18.76;71.80;98532.23;1614512;87;21122;-66
2021/05/03 10:07:41;;;;;;;0.98;0.80;;;;;;;18.94;67.95;98527.82;1614971;87;21116;-64
2021/05/03 10:10:18;;;;;;;126.78;6.65;;;;;;;18.94;67.95;98527.82;1627016;81;21118;-64
2021/05/03 10:12:48;;;;;;;3.60;0.80;;;;;;;18.96;66.68;98532.14;1758200;79;20975;-64
2021/05/03 10:15:19;;;;;;;1.87;0.80;;;;;;;18.92;64.47;98539.92;1755973;79;21356;-73
2021/05/03 10:17:49;;;;;;;1.90;1.10;;;;;;;18.85;65.36;98537.13;1760128;79;21091;-65
2021/05/03 10:20:20;;;;;;;6.62;1.45;;;;;;;18.80;66.65;98537.35;1756351;81;21057;-66
2021/05/03 10:22:55;;;;;;;4.95;0.78;;;;;;;18.86;68.54;98534.38;1760100;79;21007;-67
2021/05/03 10:25:26;;;;;;;3.20;1.00;;;;;;;18.93;67.47;98529.63;1763238;79;21585;-64
2021/05/03 10:27:59;;;;;;;1.75;1.05;;;;;;;19.03;66.98;98541.59;1758760;81;21253;-67
2021/05/03 10:30:30;;;;;;;12.15;0.95;;;;;;;19.07;62.48;98538.29;1705316;79;21009;-66
2021/05/03 10:33:14;;;;;;;3.15;0.88;;;;;;;19.04;60.13;98527.75;1759943;81;20897;-66
2021/05/03 10:35:48;;;;;;;1.75;0.75;;;;;;;18.98;59.23;98530.73;1758977;79;21103;-66
2021/05/03 10:38:42;;;;;;;1.40;1.10;;;;;;;18.97;59.83;98539.22;1760191;79;21065;-66
2021/05/03 10:41:34;;;;;;;1.87;0.80;;;;;;;18.95;59.49;98537.09;1755656;79;22275;-60
2021/05/03 10:44:20;;;;;;;3.05;1.10;;;;;;;19.04;61.23;98539.31;1757757;81;21124;-67
2021/05/03 10:47:00;;;;;;;2.30;0.93;;;;;;;19.16;60.13;98534.68;1755432;80;21132;-69
2021/05/03 10:49:45;;;;;;;1.82;1.00;;;;;;;19.27;58.83;98538.62;1759600;80;21293;-70
2021/05/03 10:52:15;;;;;;;3.17;0.93;;;;;;;19.29;58.63;98525.56;1753162;79;21158;-71
2021/05/03 10:54:50;;;;;;;2.08;1.27;;;;;;;19.27;58.07;98524.77;1754691;80;21167;-66
2021/05/03 10:57:29;;;;;;;1.32;1.12;;;;;;;19.29;57.02;98527.37;1753190;79;21090;-69
2021/05/03 11:00:01;;;;;;;5.65;1.05;;;;;;;19.32;56.72;98533.89;1758514;80;21552;-68
2021/05/03 11:02:44;;;;;;;1.67;0.80;;;;;;;19.34;55.83;98528.00;1755139;80;21041;-69
2021/05/03 11:05:26;;;;;;;2.33;1.12;;;;;;;19.40;54.56;98527.23;1755717;80;20988;-68
2021/05/03 11:08:09;;;;;;;18.07;1.35;;;;;;;19.41;53.25;98524.95;1756766;80;21555;-68
2021/05/03 11:11:04;;;;;;;1.50;1.00;;;;;;;19.32;51.85;98513.37;1761719;80;20929;-68
2021/05/03 11:13:41;;;;;;;3.25;0.93;;;;;;;19.13;51.79;98526.81;1755762;81;20945;-62
2021/05/03 11:16:32;;;;;;;6.05;1.00;;;;;;;19.11;52.48;98521.16;1756532;80;20920;-69
2021/05/03 11:20:02;;;;;;;1.30;0.80;;;;;;;19.19;53.41;98524.30;1754809;81;21049;-69
2021/05/03 11:22:44;;;;;;;0.85;0.70;;;;;;;19.31;54.60;98530.83;1747981;82;20979;-68
2021/05/03 11:25:20;;;;;;;2.08;0.90;;;;;;;19.50;55.60;98523.14;1748860;82;21634;-68
2021/05/03 11:30:35;;;;;;;2.60;1.00;;;;;;;19.73;54.84;98513.94;1748795;80;20946;-70
2021/05/03 11:33:10;;;;;;;2.22;0.90;;;;;;;19.89;54.28;98525.19;1754866;81;21129;-68
2021/05/03 11:35:50;;;;;;;1.02;0.80;;;;;;;19.98;51.78;98520.20;1763172;81;21269;-68
2021/05/03 11:38:31;;;;;;;2.62;0.90;;;;;;;20.05;50.79;98521.59;1762780;80;21100;-68
2021/05/03 11:46:34;;;;;;;1.00;0.80;;;;;;;20.20;47.90;98532.41;1750926;81;21093;-69
2021/05/03 11:49:16;;;;;;;3.58;0.80;;;;;;;20.13;46.81;98541.26;1748826;81;21354;-68
2021/05/03 11:51:55;;;;;;;1.70;1.20;;;;;;;20.01;46.18;98537.44;1748853;81;21006;-70
2021/05/03 11:54:38;;;;;;;2.58;1.05;;;;;;;20.00;47.60;98553.11;1748762;82;20998;-69
2021/05/03 11:57:16;;;;;;;1.15;0.93;;;;;;;20.02;46.63;98543.18;1748815;82;21097;-68
2021/05/03 11:59:46;;;;;;;1.98;1.27;;;;;;;20.00;46.32;98540.20;1748976;82;20990;-67
2021/05/03 12:02:16;;;;;;;1.25;0.90;;;;;;;19.99;46.16;98543.34;1752592;79;21340;-69
2021/05/03 12:04:48;;;;;;;2.30;0.80;;;;;;;20.07;45.58;98542.93;1742748;79;21152;-68
2021/05/03 12:07:30;;;;;;;1.00;0.80;;;;;;;20.14;45.27;98541.65;1749956;79;21084;-69
2021/05/03 12:10:14;;;;;;;5.12;0.90;;;;;;;20.24;45.95;98541.53;1749956;79;21075;-68
2021/05/03 12:12:51;;;;;;;1.82;0.90;;;;;;;20.35;44.50;98545.86;1686951;83;21087;-69
2021/05/03 12:15:27;;;;;;;3.12;0.90;;;;;;;20.36;43.01;98546.72;1724327;82;21420;-69
2021/05/03 12:18:04;;;;;;;0.88;0.80;;;;;;;20.37;43.68;98544.43;1724200;81;21154;-69
2021/05/03 12:20:35;;;;;;;0.60;0.60;;;;;;;20.46;43.89;98549.78;1724219;83;20996;-67
2021/05/03 12:23:10;;;;;;;2.25;0.78;;;;;;;20.43;42.92;98556.18;1724148;82;21067;-67
2021/05/03 12:25:49;;;;;;;1.12;0.80;;;;;;;20.40;43.27;98548.31;1724315;82;21012;-68
2021/05/03 12:28:19;;;;;;;6.25;0.90;;;;;;;20.39;42.98;98554.59;1723807;82;22042;-67
2021/05/03 12:30:50;;;;;;;3.37;0.90;;;;;;;20.31;42.34;98543.40;1724244;81;20956;-68